Time;durP1;ratioP1;P1;durP2;ratioP2;P2;SDS_P1;SDS_P2;PMS_P1;PMS_P2;Temp;Humidity;BMP_temperature;BMP_pressure;BME280_temperature;BME280_humidity;BME280_pressure;Samples;Min_cycle;Max_cycle;Signal;HPM_P1;HPM_P2
2021/11/11 00:02:15;;;;;;;43.58;18.23;;;6.70;99.90;;;;;;5033888;28;20176;-90
2021/11/11 00:04:41;;;;;;;36.58;17.63;;;6.80;99.90;;;;;;5033293;28;20167;-84
2021/11/11 00:07:07;;;;;;;39.40;18.08;;;6.80;99.90;;;;;;5033145;28;20171;-77
2021/11/11 00:09:34;;;;;;;34.60;17.83;;;6.80;99.90;;;;;;5033204;28;20247;-77
2021/11/11 00:12:00;;;;;;;35.20;18.38;;;6.70;99.90;;;;;;5033103;28;20526;-77
2021/11/11 00:14:25;;;;;;;41.78;18.40;;;6.70;99.90;;;;;;5033376;28;20630;-77
2021/11/11 00:16:52;;;;;;;38.42;17.48;;;6.60;99.90;;;;;;5033178;28;20286;-77
2021/11/11 00:19:17;;;;;;;38.38;18.38;;;6.60;99.90;;;;;;5033714;28;20624;-81
2021/11/11 00:21:43;;;;;;;43.72;16.95;;;6.60;99.90;;;;;;5033377;28;20187;-77
2021/11/11 00:24:09;;;;;;;41.33;18.00;;;6.60;99.90;;;;;;5033121;28;20175;-77
2021/11/11 00:26:34;;;;;;;42.72;17.65;;;6.60;99.90;;;;;;5033248;28;20175;-77
2021/11/11 00:29:00;;;;;;;39.50;18.05;;;6.70;99.90;;;;;;5033471;28;20195;-77
2021/11/11 00:31:26;;;;;;;32.63;16.42;;;6.60;99.90;;;;;;5033081;28;20246;-77
2021/11/11 00:33:52;;;;;;;37.92;16.88;;;6.30;99.90;;;;;;5032929;28;20255;-77
2021/11/11 00:36:19;;;;;;;36.67;16.63;;;6.20;99.90;;;;;;5032742;28;20195;-77
2021/11/11 00:38:45;;;;;;;31.80;17.27;;;6.30;99.90;;;;;;5031934;28;20198;-77
2021/11/11 00:41:11;;;;;;;31.85;17.67;;;6.40;99.90;;;;;;5032994;28;20179;-80
2021/11/11 00:43:38;;;;;;;38.35;17.60;;;6.40;99.90;;;;;;5033138;28;20662;-78
2021/11/11 00:46:04;;;;;;;36.03;16.33;;;6.30;99.90;;;;;;5033092;28;20537;-77
2021/11/11 00:48:31;;;;;;;39.60;18.63;;;6.40;99.90;;;;;;5032741;28;20195;-78
2021/11/11 00:50:57;;;;;;;40.90;17.45;;;6.50;99.90;;;;;;5032951;28;20673;-77
2021/11/11 00:53:22;;;;;;;34.53;17.40;;;6.60;99.90;;;;;;5033115;28;20156;-78
2021/11/11 00:55:48;;;;;;;38.30;15.40;;;6.60;99.90;;;;;;5032717;28;20207;-78
2021/11/11 00:58:14;;;;;;;33.80;15.82;;;6.60;99.90;;;;;;5033111;28;20500;-77
2021/11/11 01:00:40;;;;;;;31.30;15.57;;;6.50;99.90;;;;;;5032526;28;20197;-77
2021/11/11 01:03:07;;;;;;;28.35;15.20;;;6.20;99.90;;;;;;5032873;28;20172;-77
2021/11/11 01:05:33;;;;;;;36.92;15.48;;;6.00;99.90;;;;;;5032581;28;20190;-77
2021/11/11 01:07:59;;;;;;;29.85;14.18;;;6.00;99.90;;;;;;5033787;28;20313;-78
2021/11/11 01:10:26;;;;;;;34.92;14.48;;;5.90;99.90;;;;;;5033857;28;20200;-77
2021/11/11 01:12:52;;;;;;;19.55;14.07;;;5.80;99.90;;;;;;5033326;28;20655;-78
2021/11/11 01:15:23;;;;;;;29.00;15.13;;;5.90;99.90;;;;;;5032127;28;20638;-77
2021/11/11 01:17:49;;;;;;;33.15;14.18;;;6.10;99.90;;;;;;5033049;28;20290;-80
2021/11/11 01:20:16;;;;;;;29.05;14.73;;;6.20;99.90;;;;;;5034612;28;20302;-81
2021/11/11 01:22:43;;;;;;;26.88;14.55;;;6.20;99.90;;;;;;5032581;28;20167;-77
2021/11/11 01:25:12;;;;;;;29.90;14.43;;;6.20;99.90;;;;;;5031501;28;20291;-77
2021/11/11 01:27:38;;;;;;;39.92;15.90;;;6.20;99.90;;;;;;5031450;28;20172;-77
2021/11/11 01:30:05;;;;;;;33.65;17.30;;;6.30;99.90;;;;;;5032523;28;20190;-77
2021/11/11 01:32:31;;;;;;;28.10;15.95;;;6.30;99.90;;;;;;5031490;28;20179;-77
2021/11/11 01:34:56;;;;;;;26.27;14.80;;;6.40;99.90;;;;;;5032826;28;20575;-77
2021/11/11 01:37:22;;;;;;;28.08;15.07;;;6.30;99.90;;;;;;5031103;28;20211;-77
2021/11/11 01:39:48;;;;;;;34.45;15.55;;;6.40;99.90;;;;;;5032481;28;20667;-78
2021/11/11 01:42:14;;;;;;;32.88;15.68;;;6.60;99.90;;;;;;5033490;28;20176;-77
2021/11/11 01:44:47;;;;;;;29.30;16.40;;;6.40;99.90;;;;;;5036335;28;20168;-77
2021/11/11 01:47:13;;;;;;;33.00;15.68;;;6.40;99.90;;;;;;5036575;28;20250;-77
2021/11/11 01:49:39;;;;;;;33.35;16.25;;;6.70;99.90;;;;;;5036542;28;20254;-77
2021/11/11 01:52:05;;;;;;;26.85;14.88;;;6.40;99.90;;;;;;5038243;28;20176;-78
2021/11/11 01:54:31;;;;;;;28.00;14.63;;;6.30;99.90;;;;;;5036127;28;20175;-77
2021/11/11 01:56:57;;;;;;;27.17;14.70;;;6.30;99.90;;;;;;5036265;28;20195;-77
2021/11/11 01:59:24;;;;;;;30.52;15.00;;;6.40;99.90;;;;;;5036057;28;20171;-78
2021/11/11 02:01:49;;;;;;;28.92;15.90;;;6.30;99.90;;;;;;5036423;28;20168;-77
2021/11/11 02:04:15;;;;;;;29.05;14.77;;;6.40;99.90;;;;;;5036673;28;20209;-77
2021/11/11 02:06:41;;;;;;;29.83;15.40;;;6.50;99.90;;;;;;5036400;28;20222;-78
2021/11/11 02:09:08;;;;;;;40.60;17.90;;;6.70;99.90;;;;;;5036215;28;20226;-86
2021/11/11 02:11:34;;;;;;;24.83;14.23;;;6.60;99.90;;;;;;5036326;28;20188;-77
2021/11/11 02:14:00;;;;;;;30.83;15.85;;;6.40;99.90;;;;;;5036062;28;20207;-77
2021/11/11 02:16:25;;;;;;;29.70;15.18;;;6.40;99.90;;;;;;5035638;28;20205;-77
2021/11/11 02:18:51;;;;;;;26.65;14.65;;;6.40;99.90;;;;;;5036350;28;20188;-77
2021/11/11 02:21:17;;;;;;;29.52;15.38;;;6.40;99.90;;;;;;5035758;28;20291;-78
2021/11/11 02:23:44;;;;;;;25.83;14.20;;;6.60;99.90;;;;;;5035577;28;20171;-77
2021/11/11 02:26:10;;;;;;;25.73;14.45;;;6.50;99.90;;;;;;5035552;28;20195;-77
2021/11/11 02:28:36;;;;;;;45.70;15.30;;;6.60;99.90;;;;;;5035195;28;20222;-77
2021/11/11 02:31:02;;;;;;;35.35;14.85;;;6.60;99.90;;;;;;5036126;28;20187;-77
2021/11/11 02:33:28;;;;;;;24.63;14.95;;;6.50;99.90;;;;;;5036008;28;20176;-77
2021/11/11 02:35:55;;;;;;;23.75;15.73;;;6.60;99.90;;;;;;5035218;28;20723;-77
2021/11/11 02:38:21;;;;;;;24.73;15.15;;;6.70;99.90;;;;;;5035850;28;20243;-78
2021/11/11 02:40:47;;;;;;;34.97;16.20;;;6.70;99.90;;;;;;5035272;28;20190;-93
2021/11/11 02:43:14;;;;;;;33.30;16.60;;;6.80;99.90;;;;;;5035325;28;20164;-77
2021/11/11 02:45:44;;;;;;;27.55;15.57;;;6.90;99.90;;;;;;5035493;28;20674;-77
2021/11/11 02:48:13;;;;;;;40.00;15.80;;;7.00;99.90;;;;;;5035809;28;20226;-77
2021/11/11 02:50:39;;;;;;;27.65;15.85;;;7.00;99.90;;;;;;5035321;28;20176;-77
2021/11/11 02:53:06;;;;;;;21.85;14.48;;;7.00;99.90;;;;;;5034508;28;20306;-77
2021/11/11 02:55:32;;;;;;;27.98;15.98;;;7.10;99.90;;;;;;5033753;28;20167;-77
2021/11/11 02:57:59;;;;;;;27.73;14.75;;;7.10;99.90;;;;;;5034972;28;20208;-77
2021/11/11 03:00:30;;;;;;;37.78;16.33;;;7.20;99.90;;;;;;5035298;28;20180;-77
2021/11/11 03:02:56;;;;;;;26.17;15.00;;;7.30;99.90;;;;;;5035219;28;20624;-77
2021/11/11 03:05:29;;;;;;;27.33;16.70;;;7.30;99.90;;;;;;5035044;28;20211;-78
2021/11/11 03:07:55;;;;;;;34.00;17.27;;;7.10;99.90;;;;;;5035468;28;20175;-77
2021/11/11 03:10:23;;;;;;;29.45;17.55;;;7.30;99.90;;;;;;5035480;28;20194;-78
2021/11/11 03:12:51;;;;;;;32.78;16.83;;;7.30;99.90;;;;;;5034928;28;20621;-86
2021/11/11 03:15:18;;;;;;;28.27;16.73;;;7.50;99.90;;;;;;5017311;28;20263;-79
2021/11/11 03:17:44;;;;;;;27.40;15.55;;;7.70;99.90;;;;;;5034683;28;20225;-77
2021/11/11 03:20:12;;;;;;;31.98;15.80;;;7.70;99.90;;;;;;5034299;28;20705;-77
2021/11/11 03:22:40;;;;;;;31.33;16.65;;;7.70;99.90;;;;;;5034816;28;20168;-77
2021/11/11 03:25:07;;;;;;;24.33;16.02;;;7.70;99.90;;;;;;5035901;28;20620;-79
2021/11/11 03:27:32;;;;;;;34.33;16.52;;;7.70;99.90;;;;;;5035676;28;20171;-77
2021/11/11 03:29:58;;;;;;;22.45;16.25;;;7.40;99.90;;;;;;5033342;28;20191;-77
2021/11/11 03:32:24;;;;;;;35.42;15.30;;;7.50;99.90;;;;;;5034907;28;20164;-77
2021/11/11 03:34:50;;;;;;;23.02;15.95;;;7.50;99.90;;;;;;5033901;28;20553;-77
2021/11/11 03:37:16;;;;;;;36.97;17.90;;;7.50;99.90;;;;;;5034568;28;20245;-89
2021/11/11 03:39:43;;;;;;;34.22;16.67;;;7.70;99.90;;;;;;5034463;28;20294;-77
2021/11/11 03:42:10;;;;;;;27.60;16.27;;;7.70;99.90;;;;;;5035329;28;20301;-77
2021/11/11 03:44:38;;;;;;;29.35;17.45;;;7.80;99.90;;;;;;5034590;28;20628;-77
2021/11/11 03:47:04;;;;;;;29.90;17.42;;;7.80;99.90;;;;;;5034200;28;20164;-77
2021/11/11 03:49:34;;;;;;;36.58;18.33;;;7.80;99.90;;;;;;5034031;28;20175;-77
2021/11/11 03:52:01;;;;;;;37.15;18.38;;;8.00;99.90;;;;;;5033220;28;20160;-77
2021/11/11 03:54:27;;;;;;;28.40;17.35;;;7.70;99.90;;;;;;5035607;28;20229;-77
2021/11/11 03:56:56;;;;;;;28.15;16.70;;;7.40;99.90;;;;;;5034938;28;20204;-77
2021/11/11 03:59:23;;;;;;;32.25;16.10;;;7.40;99.90;;;;;;5034016;28;20175;-77
2021/11/11 04:01:49;;;;;;;24.95;16.05;;;7.50;99.90;;;;;;5033761;28;20175;-78
2021/11/11 04:04:15;;;;;;;28.08;16.42;;;7.30;99.90;;;;;;5034118;28;20302;-78
2021/11/11 04:06:41;;;;;;;37.33;18.20;;;7.40;99.90;;;;;;5034012;28;20222;-77
2021/11/11 04:09:07;;;;;;;26.33;15.93;;;7.70;99.90;;;;;;5034316;28;20176;-84
2021/11/11 04:11:33;;;;;;;34.58;17.25;;;7.50;99.90;;;;;;5034024;28;20195;-77
2021/11/11 04:13:59;;;;;;;37.80;18.00;;;7.50;99.90;;;;;;5033833;28;20194;-77
2021/11/11 04:16:25;;;;;;;28.58;17.23;;;7.70;99.90;;;;;;5034236;28;20246;-83
2021/11/11 04:18:52;;;;;;;32.08;17.00;;;7.70;99.90;;;;;;5033934;28;20189;-77
2021/11/11 04:21:18;;;;;;;32.85;16.40;;;7.80;99.90;;;;;;5033584;28;20194;-94
2021/11/11 04:23:45;;;;;;;29.83;17.25;;;8.00;99.90;;;;;;5033071;28;20168;-77
2021/11/11 04:28:44;;;;;;;35.47;18.38;;;7.90;99.90;;;;;;5033520;28;20175;-77
2021/11/11 04:31:23;;;;;;;33.22;16.13;;;7.90;99.90;;;;;;5033061;28;20611;-77
2021/11/11 04:33:53;;;;;;;32.17;19.20;;;8.10;99.90;;;;;;5033147;28;20186;-77
2021/11/11 05:03:34;;;;;;;30.98;17.77;;;8.00;99.90;;;;;;5013261;28;20180;-78
2021/11/11 05:06:01;;;;;;;27.38;17.42;;;8.00;99.90;;;;;;5033001;28;20171;-77
2021/11/11 05:08:27;;;;;;;30.75;17.77;;;8.00;99.90;;;;;;5033654;28;20156;-77
2021/11/11 05:10:53;;;;;;;29.55;16.75;;;8.40;99.90;;;;;;5032272;28;20202;-77
2021/11/11 05:13:19;;;;;;;28.08;16.63;;;8.50;99.90;;;;;;5032899;28;20164;-78
2021/11/11 05:15:45;;;;;;;31.15;17.92;;;8.50;99.90;;;;;;5033837;28;20261;-77
2021/11/11 05:18:11;;;;;;;33.17;16.38;;;8.50;99.90;;;;;;5015209;28;20175;-77
2021/11/11 05:20:37;;;;;;;34.70;16.45;;;8.30;99.90;;;;;;5032696;28;20238;-76
2021/11/11 05:23:03;;;;;;;29.17;15.55;;;8.30;99.90;;;;;;5032485;28;20172;-77
2021/11/11 05:25:29;;;;;;;31.60;16.35;;;8.20;99.90;;;;;;5032772;28;20160;-77
2021/11/11 05:27:55;;;;;;;28.88;16.65;;;8.20;99.90;;;;;;5032825;28;20156;-77
2021/11/11 05:30:21;;;;;;;27.30;15.98;;;8.20;99.90;;;;;;5033080;28;20628;-77
2021/11/11 05:32:47;;;;;;;30.15;16.90;;;8.20;99.90;;;;;;5034041;28;20206;-78
2021/11/11 05:35:14;;;;;;;26.08;16.05;;;8.30;99.90;;;;;;5031288;28;20160;-77
2021/11/11 05:37:41;;;;;;;30.35;16.52;;;8.50;99.90;;;;;;5032344;28;20208;-77
2021/11/11 05:40:08;;;;;;;33.75;14.57;;;8.30;99.90;;;;;;5032992;28;20191;-77
2021/11/11 05:42:34;;;;;;;32.92;15.85;;;8.20;99.90;;;;;;5031934;28;20191;-77
2021/11/11 05:45:00;;;;;;;29.65;16.52;;;8.40;99.90;;;;;;5032839;28;20175;-78
2021/11/11 05:47:26;;;;;;;29.35;16.15;;;8.50;99.90;;;;;;5031817;28;20172;-77
2021/11/11 05:49:51;;;;;;;27.27;16.42;;;8.60;99.90;;;;;;5033094;28;20195;-77
2021/11/11 05:52:17;;;;;;;29.02;16.67;;;8.50;99.90;;;;;;5032228;28;20222;-78
2021/11/11 05:54:43;;;;;;;35.45;16.65;;;8.40;99.90;;;;;;5032087;28;20279;-77
2021/11/11 05:57:09;;;;;;;23.67;15.55;;;8.30;99.90;;;;;;5032737;28;20959;-77
2021/11/11 05:59:39;;;;;;;31.90;17.02;;;7.90;99.90;;;;;;5033309;28;20183;-94
2021/11/11 06:02:07;;;;;;;24.08;15.30;;;8.00;99.90;;;;;;5032223;28;20251;-77
2021/11/11 06:04:33;;;;;;;28.10;16.48;;;8.20;99.90;;;;;;5033354;28;20170;-77
2021/11/11 06:06:59;;;;;;;27.70;16.00;;;8.30;99.90;;;;;;5032791;28;20573;-77
2021/11/11 06:09:25;;;;;;;23.58;15.68;;;8.30;99.90;;;;;;5032402;28;20179;-77
2021/11/11 06:11:50;;;;;;;26.65;15.93;;;8.30;99.90;;;;;;5033252;28;20592;-78
2021/11/11 06:14:16;;;;;;;29.92;16.33;;;8.40;99.90;;;;;;5033978;28;20210;-83
2021/11/11 06:16:42;;;;;;;33.22;17.05;;;8.30;99.90;;;;;;5033670;28;20200;-77
2021/11/11 06:19:09;;;;;;;27.10;16.92;;;8.40;99.90;;;;;;5035661;28;20168;-87
2021/11/11 06:21:37;;;;;;;30.17;15.52;;;8.40;99.90;;;;;;5033762;28;20222;-77
2021/11/11 06:24:03;;;;;;;33.55;16.50;;;8.40;99.90;;;;;;5035326;28;20171;-77
2021/11/11 06:26:28;;;;;;;30.20;17.02;;;8.40;99.90;;;;;;5034948;28;20195;-77
2021/11/11 06:28:54;;;;;;;24.50;15.07;;;8.40;99.90;;;;;;5034215;28;20620;-77
2021/11/11 06:31:20;;;;;;;30.70;16.67;;;8.40;99.90;;;;;;5036769;28;20192;-77
2021/11/11 06:33:46;;;;;;;25.27;15.50;;;8.50;99.90;;;;;;5035779;28;20186;-83
2021/11/11 06:36:13;;;;;;;34.25;17.27;;;8.60;99.90;;;;;;5034934;28;20203;-77
2021/11/11 06:38:38;;;;;;;30.52;15.50;;;8.80;99.90;;;;;;5035643;28;20160;-77
2021/11/11 06:41:04;;;;;;;24.98;15.38;;;8.90;99.90;;;;;;5034815;28;20546;-77
2021/11/11 06:43:30;;;;;;;23.70;14.98;;;8.70;99.90;;;;;;5035342;28;20639;-77
2021/11/11 06:45:56;;;;;;;31.60;16.35;;;8.80;99.90;;;;;;5035229;28;20164;-79
2021/11/11 06:48:21;;;;;;;24.77;15.60;;;8.80;99.90;;;;;;5035752;28;20164;-79
2021/11/11 06:50:47;;;;;;;30.63;16.13;;;8.90;99.90;;;;;;5036109;28;20266;-78
2021/11/11 06:53:16;;;;;;;26.75;15.65;;;8.80;99.90;;;;;;5032565;28;20176;-77
2021/11/11 06:55:43;;;;;;;33.08;16.52;;;8.90;99.90;;;;;;5033643;28;20160;-78
2021/11/11 06:58:11;;;;;;;27.35;15.73;;;8.90;99.90;;;;;;5036018;28;20226;-77
2021/11/11 07:00:37;;;;;;;31.05;15.75;;;9.00;99.90;;;;;;5035801;28;20194;-77
2021/11/11 07:03:04;;;;;;;31.40;16.88;;;9.10;99.90;;;;;;5036283;28;20176;-77
2021/11/11 07:05:31;;;;;;;27.30;16.02;;;9.10;99.90;;;;;;5040372;28;20250;-78
2021/11/11 07:07:57;;;;;;;26.38;15.40;;;9.00;99.90;;;;;;5033010;28;20183;-77
2021/11/11 07:10:24;;;;;;;28.27;15.45;;;9.10;99.90;;;;;;5036222;28;20180;-77
2021/11/11 07:12:50;;;;;;;26.08;15.82;;;8.90;99.90;;;;;;5034721;28;20168;-78
2021/11/11 07:15:17;;;;;;;31.52;16.13;;;9.10;99.90;;;;;;5034453;28;20171;-77
2021/11/11 07:17:44;;;;;;;26.50;15.13;;;9.10;99.90;;;;;;5034302;28;20229;-77
2021/11/11 07:20:13;;;;;;;29.02;16.27;;;8.90;99.90;;;;;;5034288;28;20205;-78
2021/11/11 07:22:45;;;;;;;26.23;15.77;;;8.90;99.90;;;;;;5035199;28;20179;-95
2021/11/11 07:25:14;;;;;;;27.73;15.93;;;8.70;99.90;;;;;;5038088;28;20613;-80
2021/11/11 07:27:40;;;;;;;27.95;15.07;;;8.80;99.90;;;;;;5035811;28;20168;-78
2021/11/11 07:30:10;;;;;;;27.60;16.75;;;8.80;99.90;;;;;;5034707;28;20198;-78
2021/11/11 07:32:37;;;;;;;26.13;15.23;;;8.70;99.90;;;;;;5034839;28;20251;-94
2021/11/11 07:35:03;;;;;;;28.50;15.65;;;8.80;99.90;;;;;;5033996;28;20164;-79
2021/11/11 07:37:28;;;;;;;26.75;14.35;;;9.10;99.90;;;;;;5033683;28;20203;-78
2021/11/11 07:39:54;;;;;;;32.45;15.30;;;9.20;99.90;;;;;;5033712;28;20184;-77
2021/11/11 07:42:22;;;;;;;28.48;16.10;;;9.20;99.90;;;;;;5033861;28;20633;-78
2021/11/11 07:44:47;;;;;;;25.83;15.20;;;9.10;99.90;;;;;;5033399;28;20160;-77
2021/11/11 07:47:16;;;;;;;27.25;15.55;;;9.20;99.90;;;;;;5033802;28;20188;-78
2021/11/11 07:49:43;;;;;;;27.23;14.27;;;9.20;99.90;;;;;;5036126;28;20162;-78
2021/11/11 07:52:10;;;;;;;33.03;15.02;;;9.30;99.90;;;;;;5033669;28;20172;-84
2021/11/11 07:54:35;;;;;;;28.88;15.70;;;9.20;99.90;;;;;;5033663;28;20171;-78
2021/11/11 07:57:01;;;;;;;34.00;15.32;;;9.30;99.90;;;;;;5032739;28;20208;-79
2021/11/11 07:59:27;;;;;;;29.05;16.70;;;9.20;99.90;;;;;;5031620;28;20168;-78
2021/11/11 08:01:53;;;;;;;31.15;15.52;;;9.30;99.90;;;;;;5033110;28;20247;-82
2021/11/11 08:04:19;;;;;;;24.52;14.98;;;9.30;99.90;;;;;;5033262;28;20156;-77
2021/11/11 08:06:45;;;;;;;26.65;15.55;;;9.20;99.90;;;;;;5032720;28;20595;-81
2021/11/11 08:09:10;;;;;;;21.23;14.52;;;9.40;99.90;;;;;;5033704;28;20251;-84
2021/11/11 08:11:36;;;;;;;31.02;15.57;;;9.40;99.90;;;;;;5033264;28;20275;-78
2021/11/11 08:14:05;;;;;;;28.85;16.75;;;9.30;99.90;;;;;;5032854;28;20187;-78
2021/11/11 08:16:31;;;;;;;34.10;15.27;;;9.20;99.90;;;;;;5031898;28;20215;-84
2021/11/11 08:18:59;;;;;;;30.88;16.35;;;9.00;99.90;;;;;;5033630;28;20191;-79
2021/11/11 08:21:25;;;;;;;30.52;15.90;;;9.20;99.90;;;;;;5034396;28;20188;-77
2021/11/11 08:23:50;;;;;;;27.38;14.43;;;9.30;99.90;;;;;;5033004;28;20225;-78
2021/11/11 08:26:16;;;;;;;34.15;15.77;;;9.30;99.90;;;;;;5034155;28;20230;-76
2021/11/11 08:28:42;;;;;;;25.05;13.80;;;9.40;99.90;;;;;;5033158;28;20742;-77
2021/11/11 08:31:07;;;;;;;21.40;14.52;;;9.30;99.90;;;;;;5035454;28;20204;-77
2021/11/11 08:33:33;;;;;;;24.77;16.42;;;9.20;99.90;;;;;;5033665;28;20259;-79
2021/11/11 08:35:59;;;;;;;26.75;15.27;;;9.10;99.90;;;;;;5033915;28;20211;-77
2021/11/11 08:38:27;;;;;;;30.33;15.50;;;9.20;99.90;;;;;;5031639;28;20620;-77
2021/11/11 08:40:54;;;;;;;30.85;14.93;;;9.30;99.90;;;;;;5033825;28;20183;-78
2021/11/11 08:43:20;;;;;;;30.58;15.68;;;9.60;99.90;;;;;;5033560;28;20175;-77
2021/11/11 08:45:46;;;;;;;28.23;15.15;;;9.70;99.90;;;;;;5033332;28;20210;-77
2021/11/11 08:48:12;;;;;;;26.80;14.15;;;9.50;99.90;;;;;;5033406;28;20167;-78
2021/11/11 08:50:38;;;;;;;26.40;14.85;;;9.70;99.90;;;;;;5033477;28;20179;-77
2021/11/11 08:53:07;;;;;;;27.20;15.38;;;9.90;99.90;;;;;;5034693;28;20175;-77
2021/11/11 08:55:34;;;;;;;22.77;14.90;;;10.00;99.90;;;;;;5032032;28;20683;-77
2021/11/11 08:58:04;;;;;;;24.35;14.70;;;9.80;99.90;;;;;;5031729;28;20202;-77
2021/11/11 09:00:33;;;;;;;27.10;15.23;;;10.00;99.90;;;;;;5030370;28;20198;-78
2021/11/11 09:03:00;;;;;;;36.80;15.20;;;10.30;99.90;;;;;;5033560;28;20259;-77
2021/11/11 09:05:31;;;;;;;24.65;14.88;;;10.50;99.90;;;;;;5031824;28;20168;-77
2021/11/11 09:07:58;;;;;;;32.58;15.15;;;10.30;99.90;;;;;;5032485;28;20199;-77
2021/11/11 09:10:24;;;;;;;26.55;14.38;;;10.40;99.90;;;;;;5033032;28;20180;-78
2021/11/11 09:12:52;;;;;;;26.85;15.10;;;10.60;99.90;;;;;;5032368;28;20183;-78
2021/11/11 09:15:23;;;;;;;25.33;15.20;;;10.80;99.90;;;;;;5024937;28;20174;-78
2021/11/11 09:17:51;;;;;;;28.88;15.32;;;10.90;99.90;;;;;;5032931;28;20191;-77
2021/11/11 09:20:18;;;;;;;24.33;16.08;;;10.90;99.90;;;;;;5033264;28;20194;-78
2021/11/11 09:22:45;;;;;;;22.92;14.45;;;10.90;99.90;;;;;;5033919;28;20180;-77
2021/11/11 09:25:12;;;;;;;27.30;14.48;;;10.70;99.90;;;;;;5031342;28;20274;-76
2021/11/11 09:27:40;;;;;;;31.65;15.05;;;10.30;99.90;;;;;;5032882;28;20167;-77
2021/11/11 09:30:13;;;;;;;24.77;15.35;;;10.50;99.90;;;;;;5034525;28;20241;-78
2021/11/11 09:32:40;;;;;;;29.50;14.98;;;10.50;99.90;;;;;;5033293;28;20164;-78
2021/11/11 09:35:06;;;;;;;21.13;13.65;;;10.60;99.90;;;;;;5034333;28;20274;-78
2021/11/11 09:37:34;;;;;;;27.38;15.25;;;10.70;99.90;;;;;;5030821;28;20231;-80
2021/11/11 09:40:00;;;;;;;29.67;14.77;;;10.80;99.90;;;;;;5032801;28;20273;-77
2021/11/11 09:42:26;;;;;;;25.85;14.52;;;11.00;99.90;;;;;;5033250;28;20619;-77
2021/11/11 09:44:52;;;;;;;23.88;14.00;;;10.70;99.90;;;;;;5032503;28;20175;-76
2021/11/11 09:47:19;;;;;;;21.25;14.38;;;10.80;99.90;;;;;;5032679;28;20167;-77
2021/11/11 09:49:48;;;;;;;22.42;14.60;;;10.90;99.90;;;;;;5032365;28;20179;-77
2021/11/11 09:52:14;;;;;;;23.52;14.25;;;11.20;99.90;;;;;;5031828;28;20175;-77
2021/11/11 10:00:09;;;;;;;26.80;14.60;;;11.60;99.90;;;;;;5033248;28;20302;-77
2021/11/11 10:02:35;;;;;;;30.60;14.80;;;11.60;99.90;;;;;;5033844;28;20208;-77
2021/11/11 10:05:01;;;;;;;24.00;14.38;;;11.60;99.90;;;;;;5034790;28;20179;-77
2021/11/11 10:07:27;;;;;;;33.90;15.25;;;11.80;99.90;;;;;;5036506;28;20669;-77
2021/11/11 10:09:52;;;;;;;30.33;15.45;;;11.50;99.90;;;;;;5038656;28;20191;-77
2021/11/11 10:12:21;;;;;;;22.08;13.95;;;11.60;99.90;;;;;;5051079;28;20168;-93
2021/11/11 10:15:15;;;;;;;24.58;14.25;;;11.60;99.90;;;;;;5046543;28;20176;-84
2021/11/11 10:17:43;;;;;;;29.45;14.60;;;11.80;99.90;;;;;;5048860;28;20251;-95
2021/11/11 10:20:31;;;;;;;38.45;14.55;;;11.80;99.90;;;;;;5047000;28;20251;-95
2021/11/11 10:22:57;;;;;;;31.98;14.32;;;12.00;99.90;;;;;;5047844;28;20164;-78
2021/11/11 10:25:22;;;;;;;27.25;15.30;;;12.20;99.90;;;;;;5052540;28;20163;-79
2021/11/11 10:27:58;;;;;;;24.38;15.25;;;12.30;99.90;;;;;;5048682;28;20148;-78
2021/11/11 10:30:30;;;;;;;28.58;14.52;;;12.30;99.90;;;;;;5048875;28;20195;-78
2021/11/11 10:33:05;;;;;;;28.27;15.73;;;12.40;99.90;;;;;;5045618;28;20223;-78
2021/11/11 10:35:38;;;;;;;24.27;14.90;;;12.60;99.90;;;;;;5050911;28;20167;-78
2021/11/11 10:38:09;;;;;;;25.35;14.15;;;12.60;99.90;;;;;;5045040;28;20310;-95
2021/11/11 10:40:41;;;;;;;25.38;14.20;;;12.90;99.90;;;;;;5044353;28;20191;-82
2021/11/11 10:43:18;;;;;;;25.73;14.23;;;12.80;99.90;;;;;;5050154;28;20170;-93
2021/11/11 10:45:47;;;;;;;22.80;14.63;;;12.60;99.90;;;;;;5045033;28;20175;-79
2021/11/11 10:48:16;;;;;;;23.33;14.05;;;12.80;99.90;;;;;;5041343;28;20194;-87
2021/11/11 10:50:56;;;;;;;23.70;14.88;;;12.90;99.90;;;;;;5046892;28;20208;-96
2021/11/11 10:53:26;;;;;;;29.38;13.43;;;13.00;99.90;;;;;;5040729;28;20152;-91
2021/11/11 10:55:55;;;;;;;25.63;13.98;;;13.00;99.90;;;;;;5040205;28;20266;-89
2021/11/11 10:58:24;;;;;;;18.27;12.85;;;12.70;99.90;;;;;;5038542;28;20183;-84
2021/11/11 11:00:56;;;;;;;23.52;12.93;;;12.90;99.90;;;;;;5036834;28;20278;-78
2021/11/11 11:03:30;;;;;;;20.45;13.20;;;12.70;99.90;;;;;;5035445;28;20175;-81
2021/11/11 11:06:11;;;;;;;29.05;14.27;;;12.80;99.90;;;;;;5034215;28;20178;-80
2021/11/11 11:08:45;;;;;;;25.35;12.73;;;12.80;99.90;;;;;;5039728;28;20222;-79
2021/11/11 11:11:15;;;;;;;23.65;12.68;;;12.90;99.90;;;;;;5037901;28;21060;-79
2021/11/11 11:13:57;;;;;;;22.80;13.07;;;13.10;99.90;;;;;;5035530;28;20176;-88
2021/11/11 11:16:29;;;;;;;20.95;13.60;;;12.80;99.90;;;;;;5040302;28;20282;-83
2021/11/11 11:18:57;;;;;;;18.48;12.95;;;13.00;99.90;;;;;;5040617;28;20214;-89
2021/11/11 11:21:26;;;;;;;18.45;12.55;;;13.00;99.90;;;;;;5028813;28;20557;-78
2021/11/11 11:24:01;;;;;;;23.60;13.23;;;12.50;99.90;;;;;;5031855;28;20210;-85
2021/11/11 11:26:32;;;;;;;25.08;12.45;;;12.60;99.90;;;;;;5035153;28;20182;-92
2021/11/11 11:29:18;;;;;;;18.80;12.95;;;12.70;99.90;;;;;;5035248;28;20175;-87
2021/11/11 11:32:09;;;;;;;22.13;14.05;;;12.90;99.90;;;;;;5034778;28;20195;-92
2021/11/11 11:34:47;;;;;;;20.40;12.27;;;13.10;99.90;;;;;;5032072;28;20200;-80
2021/11/11 11:37:16;;;;;;;26.77;13.10;;;13.00;99.90;;;;;;5032888;28;20203;-88
2021/11/11 11:39:46;;;;;;;16.98;12.75;;;13.10;99.90;;;;;;5032326;28;20214;-85
2021/11/11 11:42:30;;;;;;;22.17;15.10;;;13.00;99.90;;;;;;5033734;28;20659;-88
2021/11/11 11:44:57;;;;;;;24.50;13.88;;;13.10;99.90;;;;;;5034493;28;20172;-80
2021/11/11 11:47:33;;;;;;;22.67;12.65;;;13.30;99.90;;;;;;5031914;28;20214;-79
2021/11/11 11:50:10;;;;;;;29.45;13.73;;;13.10;99.90;;;;;;5032178;28;20231;-89
2021/11/11 11:52:39;;;;;;;20.95;13.30;;;13.40;99.90;;;;;;5030764;28;20163;-78
2021/11/11 11:55:22;;;;;;;21.38;12.77;;;13.20;99.90;;;;;;5032119;28;20164;-77
2021/11/11 11:57:59;;;;;;;17.98;12.05;;;13.30;99.90;;;;;;5033051;28;20223;-78
2021/11/11 12:10:39;;;;;;;22.52;13.43;;;14.10;99.90;;;;;;5028394;28;20560;-79
2021/11/11 12:34:18;;;;;;;22.40;12.48;;;13.80;99.90;;;;;;5036874;28;20182;-78
2021/11/11 12:41:26;;;;;;;23.42;12.68;;;14.00;99.90;;;;;;5011318;28;20204;-83
2021/11/11 12:44:12;;;;;;;23.80;12.40;;;14.00;99.90;;;;;;5034928;28;20175;-78
2021/11/11 12:46:46;;;;;;;17.02;12.23;;;14.10;99.90;;;;;;5025214;28;20180;-80
2021/11/11 12:49:35;;;;;;;19.63;13.05;;;14.00;99.90;;;;;;5032821;28;20621;-78
2021/11/11 12:52:19;;;;;;;25.50;14.00;;;13.80;99.90;;;;;;5035594;28;20561;-86
2021/11/11 12:54:45;;;;;;;19.52;12.63;;;13.90;99.90;;;;;;5035683;28;20225;-86
2021/11/11 12:57:12;;;;;;;20.38;12.98;;;14.00;99.90;;;;;;5036515;28;20212;-78
2021/11/11 12:59:39;;;;;;;25.88;12.82;;;14.00;99.90;;;;;;5031599;28;20608;-82
2021/11/11 13:02:05;;;;;;;29.00;13.63;;;13.80;99.90;;;;;;5032916;28;20172;-86
2021/11/11 13:04:54;;;;;;;21.20;12.98;;;13.90;99.90;;;;;;5032253;28;20171;-77
2021/11/11 13:07:29;;;;;;;19.80;12.23;;;13.90;99.90;;;;;;5031354;28;20214;-77
2021/11/11 13:10:16;;;;;;;28.33;12.65;;;13.90;99.90;;;;;;5030994;28;20195;-78
2021/11/11 13:12:42;;;;;;;26.52;13.82;;;14.10;99.90;;;;;;5032502;28;20171;-91
2021/11/11 13:15:13;;;;;;;25.35;13.52;;;14.30;99.90;;;;;;5032896;28;20282;-89
2021/11/11 13:17:42;;;;;;;16.30;12.30;;;14.40;99.90;;;;;;5023765;28;20202;-78
2021/11/11 13:20:35;;;;;;;21.65;11.80;;;14.30;99.90;;;;;;5026899;28;20183;-82
2021/11/11 13:23:17;;;;;;;17.35;11.95;;;13.90;99.90;;;;;;5030589;28;20164;-78
2021/11/11 13:28:47;;;;;;;15.52;10.68;;;13.60;99.90;;;;;;5032257;28;20321;-78
2021/11/11 15:44:57;;;;;;;20.48;11.65;;;13.30;99.90;;;;;;5033105;28;20183;-78
2021/11/11 16:22:03;;;;;;;18.35;10.40;;;12.90;99.90;;;;;;5034085;28;20250;-79
2021/11/11 16:27:11;;;;;;;25.10;12.75;;;12.80;99.90;;;;;;5034254;28;20600;-78
2021/11/11 16:29:37;;;;;;;21.27;12.30;;;12.90;99.90;;;;;;5034181;28;20203;-88
2021/11/11 16:32:03;;;;;;;23.77;11.88;;;12.90;99.90;;;;;;5035594;28;20235;-92
2021/11/11 16:34:30;;;;;;;29.75;12.60;;;12.80;99.90;;;;;;5035506;28;20241;-81
2021/11/11 16:36:57;;;;;;;32.90;12.45;;;12.80;99.90;;;;;;5033053;28;20211;-80
2021/11/11 16:39:22;;;;;;;19.30;10.82;;;12.80;99.90;;;;;;5034126;28;20221;-80
2021/11/11 16:41:49;;;;;;;26.95;12.98;;;12.80;99.90;;;;;;5033321;28;20660;-80
2021/11/11 16:44:16;;;;;;;21.85;12.38;;;12.70;99.90;;;;;;5034454;28;20164;-81